Terminal Aerodrome Forecast
Issued by NWS

Home | Current Version | Previous Version | Text Only | Print | Product List | Glossary On
Versions: 1 2 3 4 5 6 7 8 9 10 11 12 13 14 15 16
000
FTUS46 KPDT 032340 AAA
TAFBDN
TAF AMD
KBDN 032340Z 0400/0424 32007KT P6SM VCTS SCT080CB BKN150
     FM040500 30008KT P6SM SCT090 BKN180
     FM040900 24005KT P6SM SKC
     FM042100 28010G18KT P6SM FEW070=

USA.gov is the U.S. government's official web portal to all federal, state and local government web resources and services.